Aeroporto :
LOGIN :

Iscrizione | Disclaimer

   EN    FR    IT 

 










Sommario :    VFR   VFR Marginale   IFR   IFR Intensivo   IFR Molto Intensivo
Visibilità : 
Base nubi : 
>= 8 km
>= 3000ft
5 / 8 km
1000 / 3000 ft
1500m / 5 km
500 / 1000 ft
800 / 1500m
200 / 500 ft
< 800m
< 200 ft
Simboli :   Temporali  Nebbia  Neve Forte  Precipitazioni Forti  Vento > 20 kt
SIGMETs :   Varie  Temporali  Ghiacco  Turbolenza  Onda orograficha  Ceneri Vulcaniche






- Altitudine del aeroporto : 682 ft
- Codice IATA : VTB


UMII - Vitebsk

METARs OBSOLETI :
  • 151600Z 12004G07MPS 4100 BR OVC004 02/01 Q1023 R23/CLRD// TEMPO 2000 BKN003 RMK QBB120
  • 151500Z 12004G07MPS 3900 BR OVC004 01/01 Q1023 R23/D TEMPO 2000 BKN003 RMK QBB120

TAF TAF UMII
Valido dal 15 a 14 ore il 16 a 00 ore UTC


151352Z 1514/1524 12003G08MPS 2000 BR BKN004
TEMPO 1514/1524 0300 DZ FG VV002



MetMap, La meteo Aeronautica in un colpo d'occhio ! - Copyright ORBIFLY Dicembre 2007 - Disclaimer

ORBIFLY MET'MAP TEAM :

Programmazione e sviluppo : Alexandra Zaïnal
Concezione e sviluppo : Baudouin d'Aumeries
Co-Programmazione e sviluppo : Marc-Olivier Méhu
Supporto tecnico e logistico : Manuel Goepfert
Aiuto per la traduzione : Arnaldo La Scala

Contatto : metmap@orbifly.com




FONTI E CREDITI :

   NOAA